sensor_id;sensor_type;location;lat;lon;timestamp;pressure;altitude;pressure_sealevel;temperature;humidity
64086;BME280;50333;47.436;21.390;2023-02-10T00:01:33;102836.69;;;-1.71;61.67
64086;BME280;50333;47.436;21.390;2023-02-10T00:04:02;102838.56;;;-1.73;60.77
64086;BME280;50333;47.436;21.390;2023-02-10T00:06:30;102839.03;;;-1.68;61.44
64086;BME280;50333;47.436;21.390;2023-02-10T00:08:59;102843.41;;;-1.59;61.32
64086;BME280;50333;47.436;21.390;2023-02-10T00:11:28;102836.47;;;-1.91;61.82
64086;BME280;50333;47.436;21.390;2023-02-10T00:14:16;102842.41;;;-1.90;61.49
64086;BME280;50333;47.436;21.390;2023-02-10T00:16:45;102849.50;;;-1.94;61.64
64086;BME280;50333;47.436;21.390;2023-02-10T00:19:12;102846.00;;;-1.93;61.61
64086;BME280;50333;47.436;21.390;2023-02-10T00:21:40;102839.97;;;-2.14;62.42
64086;BME280;50333;47.436;21.390;2023-02-10T00:24:08;102849.38;;;-2.03;62.44
64086;BME280;50333;47.436;21.390;2023-02-10T00:26:35;102849.59;;;-2.06;62.23
64086;BME280;50333;47.436;21.390;2023-02-10T00:29:03;102846.00;;;-2.15;61.97
64086;BME280;50333;47.436;21.390;2023-02-10T00:31:32;102847.13;;;-2.31;62.21
64086;BME280;50333;47.436;21.390;2023-02-10T00:34:00;102842.72;;;-2.29;62.37
64086;BME280;50333;47.436;21.390;2023-02-10T00:36:27;102846.56;;;-2.34;62.24
64086;BME280;50333;47.436;21.390;2023-02-10T00:38:55;102846.59;;;-1.89;61.11
64086;BME280;50333;47.436;21.390;2023-02-10T00:41:23;102841.00;;;-1.94;60.94
64086;BME280;50333;47.436;21.390;2023-02-10T00:43:51;102834.13;;;-2.16;61.46
64086;BME280;50333;47.436;21.390;2023-02-10T00:46:20;102845.31;;;-2.06;60.80
64086;BME280;50333;47.436;21.390;2023-02-10T00:48:49;102836.00;;;-1.96;60.93
64086;BME280;50333;47.436;21.390;2023-02-10T00:51:17;102837.53;;;-2.16;61.44
64086;BME280;50333;47.436;21.390;2023-02-10T00:53:45;102832.50;;;-2.29;60.87
64086;BME280;50333;47.436;21.390;2023-02-10T00:56:12;102835.72;;;-2.49;62.31
64086;BME280;50333;47.436;21.390;2023-02-10T00:58:40;102828.69;;;-2.23;61.94
64086;BME280;50333;47.436;21.390;2023-02-10T01:01:09;102825.97;;;-2.44;61.76
64086;BME280;50333;47.436;21.390;2023-02-10T01:03:38;102829.94;;;-2.40;61.99
64086;BME280;50333;47.436;21.390;2023-02-10T01:06:06;102831.03;;;-2.67;62.37
64086;BME280;50333;47.436;21.390;2023-02-10T01:08:34;102835.50;;;-2.46;62.41
64086;BME280;50333;47.436;21.390;2023-02-10T01:11:05;102827.91;;;-2.12;60.90
64086;BME280;50333;47.436;21.390;2023-02-10T01:13:33;102832.28;;;-2.37;60.77
64086;BME280;50333;47.436;21.390;2023-02-10T01:16:07;102840.88;;;-2.38;61.39
64086;BME280;50333;47.436;21.390;2023-02-10T01:18:39;102830.37;;;-2.46;61.46
64086;BME280;50333;47.436;21.390;2023-02-10T01:21:16;102820.31;;;-2.25;61.18
64086;BME280;50333;47.436;21.390;2023-02-10T01:23:45;102810.13;;;-2.14;60.51
64086;BME280;50333;47.436;21.390;2023-02-10T01:26:13;102809.97;;;-2.35;60.91
64086;BME280;50333;47.436;21.390;2023-02-10T01:28:41;102810.69;;;-2.21;60.63
64086;BME280;50333;47.436;21.390;2023-02-10T01:31:13;102809.03;;;-2.34;60.36
64086;BME280;50333;47.436;21.390;2023-02-10T01:33:41;102810.22;;;-2.15;60.23
64086;BME280;50333;47.436;21.390;2023-02-10T01:36:11;102806.97;;;-2.40;61.14
64086;BME280;50333;47.436;21.390;2023-02-10T01:38:39;102805.53;;;-2.44;61.13
64086;BME280;50333;47.436;21.390;2023-02-10T01:41:08;102813.03;;;-2.65;61.08
64086;BME280;50333;47.436;21.390;2023-02-10T01:44:02;102816.78;;;-2.58;60.96
64086;BME280;50333;47.436;21.390;2023-02-10T01:46:33;102809.37;;;-2.50;61.06
64086;BME280;50333;47.436;21.390;2023-02-10T01:49:06;102814.09;;;-2.56;61.45
64086;BME280;50333;47.436;21.390;2023-02-10T01:51:45;102817.19;;;-2.40;61.78
64086;BME280;50333;47.436;21.390;2023-02-10T01:54:19;102822.28;;;-2.40;61.29
64086;BME280;50333;47.436;21.390;2023-02-10T01:56:50;102827.34;;;-2.51;61.73
64086;BME280;50333;47.436;21.390;2023-02-10T01:59:20;102824.16;;;-2.42;61.31
64086;BME280;50333;47.436;21.390;2023-02-10T02:01:50;102822.75;;;-2.23;60.79
64086;BME280;50333;47.436;21.390;2023-02-10T02:04:18;102825.16;;;-2.56;61.80
64086;BME280;50333;47.436;21.390;2023-02-10T02:06:46;102825.91;;;-2.67;61.47
64086;BME280;50333;47.436;21.390;2023-02-10T02:09:14;102821.44;;;-2.63;61.75
64086;BME280;50333;47.436;21.390;2023-02-10T02:16:59;102829.19;;;-2.64;61.23
64086;BME280;50333;47.436;21.390;2023-02-10T02:22:47;102832.50;;;-2.40;60.85
64086;BME280;50333;47.436;21.390;2023-02-10T02:34:07;102827.19;;;-2.37;59.97
64086;BME280;50333;47.436;21.390;2023-02-10T02:36:41;102829.63;;;-2.71;60.07
64086;BME280;50333;47.436;21.390;2023-02-10T02:39:11;102823.19;;;-2.52;59.81
64086;BME280;50333;47.436;21.390;2023-02-10T02:41:39;102822.59;;;-2.56;60.16
64086;BME280;50333;47.436;21.390;2023-02-10T02:44:07;102829.63;;;-2.71;60.51
64086;BME280;50333;47.436;21.390;2023-02-10T02:52:00;102832.59;;;-2.88;61.31
64086;BME280;50333;47.436;21.390;2023-02-10T02:54:37;102838.47;;;-2.99;61.31
64086;BME280;50333;47.436;21.390;2023-02-10T02:58:00;102832.16;;;-2.82;61.28
64086;BME280;50333;47.436;21.390;2023-02-10T03:00:10;102833.06;;;-2.83;61.56
64086;BME280;50333;47.436;21.390;2023-02-10T03:02:40;102827.09;;;-2.71;61.39
64086;BME280;50333;47.436;21.390;2023-02-10T03:05:09;102827.28;;;-2.85;61.59
64086;BME280;50333;47.436;21.390;2023-02-10T03:07:37;102829.47;;;-2.80;61.66
64086;BME280;50333;47.436;21.390;2023-02-10T03:10:05;102837.09;;;-2.68;61.50
64086;BME280;50333;47.436;21.390;2023-02-10T03:12:33;102836.31;;;-2.92;61.63
64086;BME280;50333;47.436;21.390;2023-02-10T03:15:00;102833.37;;;-2.63;61.14
64086;BME280;50333;47.436;21.390;2023-02-10T03:17:28;102830.69;;;-2.73;61.33
64086;BME280;50333;47.436;21.390;2023-02-10T03:19:56;102837.09;;;-2.92;61.48
64086;BME280;50333;47.436;21.390;2023-02-10T03:22:24;102830.94;;;-3.25;63.01
64086;BME280;50333;47.436;21.390;2023-02-10T03:24:52;102834.88;;;-3.45;64.12
64086;BME280;50333;47.436;21.390;2023-02-10T03:27:19;102830.63;;;-3.57;63.81
64086;BME280;50333;47.436;21.390;2023-02-10T03:29:47;102825.09;;;-3.51;63.71
64086;BME280;50333;47.436;21.390;2023-02-10T03:32:17;102825.97;;;-3.39;63.97
64086;BME280;50333;47.436;21.390;2023-02-10T03:34:46;102828.94;;;-3.32;63.77
64086;BME280;50333;47.436;21.390;2023-02-10T03:37:14;102824.69;;;-3.45;63.84
64086;BME280;50333;47.436;21.390;2023-02-10T03:39:42;102829.00;;;-3.58;65.01
64086;BME280;50333;47.436;21.390;2023-02-10T03:42:10;102824.41;;;-3.29;64.16
64086;BME280;50333;47.436;21.390;2023-02-10T03:44:38;102822.84;;;-3.43;64.02
64086;BME280;50333;47.436;21.390;2023-02-10T03:47:06;102819.44;;;-2.95;62.81
64086;BME280;50333;47.436;21.390;2023-02-10T03:49:34;102813.81;;;-2.87;62.36
64086;BME280;50333;47.436;21.390;2023-02-10T03:52:02;102814.72;;;-2.88;62.70
64086;BME280;50333;47.436;21.390;2023-02-10T03:54:30;102818.47;;;-3.05;62.88
64086;BME280;50333;47.436;21.390;2023-02-10T03:56:58;102812.19;;;-2.88;62.14
64086;BME280;50333;47.436;21.390;2023-02-10T03:59:26;102816.03;;;-3.07;62.51
64086;BME280;50333;47.436;21.390;2023-02-10T04:01:54;102814.41;;;-2.83;62.07
64086;BME280;50333;47.436;21.390;2023-02-10T04:04:22;102824.41;;;-3.05;62.16
64086;BME280;50333;47.436;21.390;2023-02-10T04:06:50;102811.06;;;-2.73;61.51
64086;BME280;50333;47.436;21.390;2023-02-10T04:09:17;102808.06;;;-3.02;62.59
64086;BME280;50333;47.436;21.390;2023-02-10T04:11:45;102812.34;;;-2.78;62.02
64086;BME280;50333;47.436;21.390;2023-02-10T04:14:13;102817.50;;;-2.91;62.26
64086;BME280;50333;47.436;21.390;2023-02-10T04:16:40;102815.78;;;-3.15;62.96
64086;BME280;50333;47.436;21.390;2023-02-10T04:19:08;102809.78;;;-2.67;61.63
64086;BME280;50333;47.436;21.390;2023-02-10T04:21:36;102812.91;;;-2.75;61.82
64086;BME280;50333;47.436;21.390;2023-02-10T04:24:04;102819.22;;;-3.27;63.45
64086;BME280;50333;47.436;21.390;2023-02-10T04:26:32;102807.84;;;-2.99;62.25
64086;BME280;50333;47.436;21.390;2023-02-10T04:29:00;102804.31;;;-2.74;61.56
64086;BME280;50333;47.436;21.390;2023-02-10T04:31:28;102804.91;;;-2.81;61.39
64086;BME280;50333;47.436;21.390;2023-02-10T04:33:56;102806.69;;;-2.95;61.37
64086;BME280;50333;47.436;21.390;2023-02-10T04:36:24;102798.56;;;-2.64;60.42
64086;BME280;50333;47.436;21.390;2023-02-10T04:38:51;102805.22;;;-2.86;61.27
64086;BME280;50333;47.436;21.390;2023-02-10T04:41:19;102808.63;;;-3.10;61.27
64086;BME280;50333;47.436;21.390;2023-02-10T04:43:48;102813.34;;;-2.92;61.34
64086;BME280;50333;47.436;21.390;2023-02-10T04:46:15;102819.84;;;-3.12;62.06
64086;BME280;50333;47.436;21.390;2023-02-10T04:48:43;102816.91;;;-2.95;61.96
64086;BME280;50333;47.436;21.390;2023-02-10T04:51:12;102827.78;;;-3.04;61.85
64086;BME280;50333;47.436;21.390;2023-02-10T04:53:40;102820.94;;;-3.04;62.16
64086;BME280;50333;47.436;21.390;2023-02-10T04:56:09;102810.50;;;-3.25;62.43
64086;BME280;50333;47.436;21.390;2023-02-10T04:58:37;102797.38;;;-3.07;62.53
64086;BME280;50333;47.436;21.390;2023-02-10T05:01:04;102805.41;;;-3.49;62.81
64086;BME280;50333;47.436;21.390;2023-02-10T05:03:32;102802.47;;;-3.31;62.26
64086;BME280;50333;47.436;21.390;2023-02-10T05:06:06;102794.50;;;-3.03;61.51
64086;BME280;50333;47.436;21.390;2023-02-10T05:08:35;102790.69;;;-3.21;61.23
64086;BME280;50333;47.436;21.390;2023-02-10T05:11:09;102798.72;;;-3.38;62.20
64086;BME280;50333;47.436;21.390;2023-02-10T05:13:38;102795.81;;;-3.21;61.87
64086;BME280;50333;47.436;21.390;2023-02-10T05:16:08;102794.62;;;-3.28;62.07
64086;BME280;50333;47.436;21.390;2023-02-10T05:18:36;102800.69;;;-3.18;62.01
64086;BME280;50333;47.436;21.390;2023-02-10T05:21:05;102783.47;;;-3.03;61.93
64086;BME280;50333;47.436;21.390;2023-02-10T05:23:35;102798.63;;;-3.37;63.10
64086;BME280;50333;47.436;21.390;2023-02-10T05:26:02;102805.09;;;-3.20;62.76
64086;BME280;50333;47.436;21.390;2023-02-10T05:28:30;102810.09;;;-2.94;62.24
64086;BME280;50333;47.436;21.390;2023-02-10T05:31:02;102821.22;;;-3.19;62.56
64086;BME280;50333;47.436;21.390;2023-02-10T05:33:32;102822.34;;;-2.99;62.24
64086;BME280;50333;47.436;21.390;2023-02-10T05:36:01;102823.75;;;-3.19;62.30
64086;BME280;50333;47.436;21.390;2023-02-10T05:38:29;102833.59;;;-3.63;63.67
64086;BME280;50333;47.436;21.390;2023-02-10T05:40:57;102840.84;;;-3.70;64.07
64086;BME280;50333;47.436;21.390;2023-02-10T05:43:25;102849.12;;;-3.79;64.42
64086;BME280;50333;47.436;21.390;2023-02-10T05:45:53;102848.84;;;-3.37;63.25
64086;BME280;50333;47.436;21.390;2023-02-10T05:48:21;102846.72;;;-3.19;62.58
64086;BME280;50333;47.436;21.390;2023-02-10T05:50:50;102853.78;;;-3.23;62.49
64086;BME280;50333;47.436;21.390;2023-02-10T05:53:19;102864.78;;;-3.23;62.32
64086;BME280;50333;47.436;21.390;2023-02-10T05:55:47;102868.28;;;-3.73;63.29
64086;BME280;50333;47.436;21.390;2023-02-10T05:58:15;102870.72;;;-3.22;62.11
64086;BME280;50333;47.436;21.390;2023-02-10T06:00:43;102873.53;;;-3.14;62.01
64086;BME280;50333;47.436;21.390;2023-02-10T06:03:11;102883.13;;;-3.17;62.46
64086;BME280;50333;47.436;21.390;2023-02-10T06:05:38;102887.94;;;-3.13;61.79
64086;BME280;50333;47.436;21.390;2023-02-10T06:08:07;102883.31;;;-3.08;61.98
64086;BME280;50333;47.436;21.390;2023-02-10T06:10:35;102884.50;;;-3.00;61.88
64086;BME280;50333;47.436;21.390;2023-02-10T06:13:03;102893.03;;;-3.13;62.11
64086;BME280;50333;47.436;21.390;2023-02-10T06:15:30;102894.06;;;-2.67;61.13
64086;BME280;50333;47.436;21.390;2023-02-10T06:17:58;102899.94;;;-2.78;60.64
64086;BME280;50333;47.436;21.390;2023-02-10T06:20:26;102902.75;;;-2.45;60.19
64086;BME280;50333;47.436;21.390;2023-02-10T06:22:53;102905.94;;;-2.08;59.64
64086;BME280;50333;47.436;21.390;2023-02-10T06:25:21;102900.59;;;-2.16;59.66
64086;BME280;50333;47.436;21.390;2023-02-10T06:27:49;102903.41;;;-2.08;59.30
64086;BME280;50333;47.436;21.390;2023-02-10T06:30:17;102902.22;;;-2.15;59.23
64086;BME280;50333;47.436;21.390;2023-02-10T06:32:45;102905.69;;;-2.28;59.85
64086;BME280;50333;47.436;21.390;2023-02-10T06:35:12;102916.44;;;-2.35;60.69
64086;BME280;50333;47.436;21.390;2023-02-10T06:37:40;102917.09;;;-2.20;60.46
64086;BME280;50333;47.436;21.390;2023-02-10T06:40:08;102920.69;;;-2.00;59.63
64086;BME280;50333;47.436;21.390;2023-02-10T06:42:36;102916.91;;;-1.72;59.39
64086;BME280;50333;47.436;21.390;2023-02-10T06:45:05;102925.25;;;-2.51;61.75
64086;BME280;50333;47.436;21.390;2023-02-10T06:47:33;102916.12;;;-2.90;64.35
64086;BME280;50333;47.436;21.390;2023-02-10T06:50:01;102903.25;;;-3.13;64.73
64086;BME280;50333;47.436;21.390;2023-02-10T06:52:29;102897.28;;;-2.76;63.47
64086;BME280;50333;47.436;21.390;2023-02-10T06:54:57;102900.31;;;-2.71;64.49
64086;BME280;50333;47.436;21.390;2023-02-10T06:57:25;102882.22;;;-2.21;63.19
64086;BME280;50333;47.436;21.390;2023-02-10T06:59:54;102890.13;;;-2.13;63.38
64086;BME280;50333;47.436;21.390;2023-02-10T07:02:22;102899.97;;;-2.67;63.71
64086;BME280;50333;47.436;21.390;2023-02-10T07:04:50;102892.25;;;-1.96;62.88
64086;BME280;50333;47.436;21.390;2023-02-10T07:07:18;102889.22;;;-2.01;63.34
64086;BME280;50333;47.436;21.390;2023-02-10T07:09:46;102889.94;;;-1.54;62.13
64086;BME280;50333;47.436;21.390;2023-02-10T07:12:14;102898.97;;;-2.17;63.69
64086;BME280;50333;47.436;21.390;2023-02-10T07:14:42;102893.38;;;-2.11;63.67
64086;BME280;50333;47.436;21.390;2023-02-10T07:17:11;102895.72;;;-1.52;62.67
64086;BME280;50333;47.436;21.390;2023-02-10T07:19:39;102895.41;;;-1.03;61.58
64086;BME280;50333;47.436;21.390;2023-02-10T07:22:07;102894.44;;;-1.23;61.44
64086;BME280;50333;47.436;21.390;2023-02-10T07:24:35;102897.84;;;-1.79;63.13
64086;BME280;50333;47.436;21.390;2023-02-10T07:27:03;102905.41;;;-1.89;65.07
64086;BME280;50333;47.436;21.390;2023-02-10T07:29:31;102900.13;;;-1.31;62.60
64086;BME280;50333;47.436;21.390;2023-02-10T07:31:59;102901.69;;;-0.43;60.45
64086;BME280;50333;47.436;21.390;2023-02-10T07:34:27;102904.13;;;-0.62;60.53
64086;BME280;50333;47.436;21.390;2023-02-10T07:36:56;102913.38;;;-0.50;61.07
64086;BME280;50333;47.436;21.390;2023-02-10T07:39:24;102906.91;;;-0.86;61.64
64086;BME280;50333;47.436;21.390;2023-02-10T07:41:52;102903.38;;;-0.53;61.71
64086;BME280;50333;47.436;21.390;2023-02-10T07:44:25;102906.16;;;-0.45;60.58
64086;BME280;50333;47.436;21.390;2023-02-10T07:46:54;102904.31;;;0.19;59.61
64086;BME280;50333;47.436;21.390;2023-02-10T07:49:21;102904.63;;;0.26;59.65
64086;BME280;50333;47.436;21.390;2023-02-10T07:51:49;102915.28;;;0.71;58.43
64086;BME280;50333;47.436;21.390;2023-02-10T07:54:17;102903.88;;;0.35;59.28
64086;BME280;50333;47.436;21.390;2023-02-10T07:56:45;102905.06;;;1.01;58.10
64086;BME280;50333;47.436;21.390;2023-02-10T07:59:13;102906.56;;;0.84;58.41
64086;BME280;50333;47.436;21.390;2023-02-10T08:01:42;102909.44;;;-0.12;60.65
64086;BME280;50333;47.436;21.390;2023-02-10T08:04:11;102900.56;;;0.23;60.25
64086;BME280;50333;47.436;21.390;2023-02-10T08:06:39;102911.53;;;0.75;59.10
64086;BME280;50333;47.436;21.390;2023-02-10T08:09:07;102902.38;;;1.02;58.85
64086;BME280;50333;47.436;21.390;2023-02-10T08:11:35;102888.66;;;1.80;56.07
64086;BME280;50333;47.436;21.390;2023-02-10T08:14:03;102890.75;;;2.04;56.17
64086;BME280;50333;47.436;21.390;2023-02-10T08:16:30;102879.41;;;2.24;55.16
64086;BME280;50333;47.436;21.390;2023-02-10T08:18:58;102877.78;;;2.51;54.28
64086;BME280;50333;47.436;21.390;2023-02-10T08:21:26;102879.69;;;2.49;54.77
64086;BME280;50333;47.436;21.390;2023-02-10T08:23:54;102877.31;;;3.01;53.65
64086;BME280;50333;47.436;21.390;2023-02-10T08:26:24;102881.13;;;2.97;54.68
64086;BME280;50333;47.436;21.390;2023-02-10T08:28:52;102882.41;;;3.37;51.82
64086;BME280;50333;47.436;21.390;2023-02-10T08:31:22;102881.94;;;3.60;51.36
64086;BME280;50333;47.436;21.390;2023-02-10T08:33:50;102877.06;;;3.13;51.97
64086;BME280;50333;47.436;21.390;2023-02-10T08:36:19;102873.13;;;3.45;52.02
64086;BME280;50333;47.436;21.390;2023-02-10T08:38:49;102871.16;;;3.38;52.36
64086;BME280;50333;47.436;21.390;2023-02-10T08:41:18;102867.00;;;3.72;51.66
64086;BME280;50333;47.436;21.390;2023-02-10T08:43:46;102862.06;;;3.78;51.32
64086;BME280;50333;47.436;21.390;2023-02-10T08:46:14;102857.72;;;4.22;51.12
64086;BME280;50333;47.436;21.390;2023-02-10T08:48:42;102857.53;;;3.81;51.97
64086;BME280;50333;47.436;21.390;2023-02-10T08:51:12;102855.88;;;4.06;51.51
64086;BME280;50333;47.436;21.390;2023-02-10T08:53:40;102860.91;;;2.67;54.25
64086;BME280;50333;47.436;21.390;2023-02-10T08:56:16;102858.47;;;3.45;53.02
64086;BME280;50333;47.436;21.390;2023-02-10T08:58:45;102857.31;;;4.00;52.10
64086;BME280;50333;47.436;21.390;2023-02-10T09:01:16;102861.97;;;4.47;50.89
64086;BME280;50333;47.436;21.390;2023-02-10T09:03:44;102858.59;;;4.47;51.16
64086;BME280;50333;47.436;21.390;2023-02-10T09:06:18;102860.50;;;4.37;50.76
64086;BME280;50333;47.436;21.390;2023-02-10T09:08:47;102869.91;;;4.54;50.22
64086;BME280;50333;47.436;21.390;2023-02-10T09:11:16;102881.44;;;4.84;49.57
64086;BME280;50333;47.436;21.390;2023-02-10T09:13:44;102876.56;;;4.73;48.80
64086;BME280;50333;47.436;21.390;2023-02-10T09:16:12;102883.34;;;4.82;48.79
64086;BME280;50333;47.436;21.390;2023-02-10T09:18:40;102876.75;;;5.04;48.05
64086;BME280;50333;47.436;21.390;2023-02-10T09:21:08;102874.22;;;4.37;49.38
64086;BME280;50333;47.436;21.390;2023-02-10T09:23:36;102878.38;;;5.05;48.09
64086;BME280;50333;47.436;21.390;2023-02-10T09:26:05;102879.50;;;5.27;48.18
64086;BME280;50333;47.436;21.390;2023-02-10T09:28:33;102884.91;;;4.50;48.58
64086;BME280;50333;47.436;21.390;2023-02-10T09:31:04;102895.47;;;4.23;49.21
64086;BME280;50333;47.436;21.390;2023-02-10T09:33:33;102893.72;;;4.90;48.15
64086;BME280;50333;47.436;21.390;2023-02-10T09:36:18;102900.31;;;5.67;46.35
64086;BME280;50333;47.436;21.390;2023-02-10T09:38:47;102896.00;;;5.35;47.55
64086;BME280;50333;47.436;21.390;2023-02-10T09:44:23;102892.69;;;5.74;45.20
64086;BME280;50333;47.436;21.390;2023-02-10T09:55:20;102896.12;;;6.22;42.80
64086;BME280;50333;47.436;21.390;2023-02-10T09:58:05;102896.53;;;6.65;42.69
64086;BME280;50333;47.436;21.390;2023-02-10T10:00:41;102897.13;;;6.75;40.95
64086;BME280;50333;47.436;21.390;2023-02-10T10:03:25;102889.31;;;6.60;40.37
64086;BME280;50333;47.436;21.390;2023-02-10T10:11:35;102891.09;;;6.83;40.56
64086;BME280;50333;47.436;21.390;2023-02-10T10:14:15;102888.03;;;7.03;40.64
64086;BME280;50333;47.436;21.390;2023-02-10T10:33:25;102861.28;;;7.55;40.14
64086;BME280;50333;47.436;21.390;2023-02-10T10:35:56;102851.16;;;7.30;39.73
64086;BME280;50333;47.436;21.390;2023-02-10T10:38:32;102847.16;;;7.58;39.38
64086;BME280;50333;47.436;21.390;2023-02-10T10:41:05;102849.56;;;7.44;39.09
64086;BME280;50333;47.436;21.390;2023-02-10T10:43:53;102844.81;;;7.63;39.76
64086;BME280;50333;47.436;21.390;2023-02-10T10:46:30;102837.97;;;7.02;39.62
64086;BME280;50333;47.436;21.390;2023-02-10T10:49:00;102838.62;;;7.34;39.78
64086;BME280;50333;47.436;21.390;2023-02-10T10:51:29;102831.34;;;6.76;39.79
64086;BME280;50333;47.436;21.390;2023-02-10T10:53:58;102832.28;;;6.60;40.13
64086;BME280;50333;47.436;21.390;2023-02-10T10:56:45;102828.78;;;6.91;40.04
64086;BME280;50333;47.436;21.390;2023-02-10T10:59:46;102821.78;;;6.31;41.00
64086;BME280;50333;47.436;21.390;2023-02-10T11:02:18;102813.00;;;6.09;41.74
64086;BME280;50333;47.436;21.390;2023-02-10T11:05:03;102820.09;;;6.84;41.31
64086;BME280;50333;47.436;21.390;2023-02-10T11:07:32;102819.47;;;6.82;41.53
64086;BME280;50333;47.436;21.390;2023-02-10T11:10:01;102816.47;;;6.93;40.38
64086;BME280;50333;47.436;21.390;2023-02-10T11:12:33;102824.53;;;6.98;40.44
64086;BME280;50333;47.436;21.390;2023-02-10T11:17:49;102809.44;;;7.02;39.82
64086;BME280;50333;47.436;21.390;2023-02-10T11:20:30;102807.56;;;7.11;39.56
64086;BME280;50333;47.436;21.390;2023-02-10T11:23:00;102801.09;;;7.07;38.72
64086;BME280;50333;47.436;21.390;2023-02-10T11:25:35;102807.06;;;6.23;39.81
64086;BME280;50333;47.436;21.390;2023-02-10T11:28:05;102809.34;;;6.72;40.29
64086;BME280;50333;47.436;21.390;2023-02-10T11:33:03;102804.50;;;6.69;39.23
64086;BME280;50333;47.436;21.390;2023-02-10T11:35:32;102795.63;;;5.78;40.33
64086;BME280;50333;47.436;21.390;2023-02-10T11:38:06;102792.53;;;6.22;39.87
64086;BME280;50333;47.436;21.390;2023-02-10T11:40:53;102795.87;;;6.54;38.79
64086;BME280;50333;47.436;21.390;2023-02-10T11:43:35;102785.91;;;6.66;40.47
64086;BME280;50333;47.436;21.390;2023-02-10T11:46:06;102786.84;;;6.50;40.76
64086;BME280;50333;47.436;21.390;2023-02-10T11:48:37;102788.97;;;6.69;39.61
64086;BME280;50333;47.436;21.390;2023-02-10T11:51:11;102780.91;;;6.64;40.11
64086;BME280;50333;47.436;21.390;2023-02-10T11:53:41;102782.41;;;6.58;39.96
64086;BME280;50333;47.436;21.390;2023-02-10T11:56:24;102784.59;;;6.47;40.11
64086;BME280;50333;47.436;21.390;2023-02-10T11:59:27;102791.94;;;6.35;40.00
64086;BME280;50333;47.436;21.390;2023-02-10T12:02:08;102777.56;;;6.32;39.72
64086;BME280;50333;47.436;21.390;2023-02-10T12:08:03;102768.47;;;5.74;40.65
64086;BME280;50333;47.436;21.390;2023-02-10T12:13:19;102760.31;;;6.16;40.00
64086;BME280;50333;47.436;21.390;2023-02-10T12:18:59;102757.81;;;6.08;39.95
64086;BME280;50333;47.436;21.390;2023-02-10T12:24:18;102750.25;;;6.21;39.44
64086;BME280;50333;47.436;21.390;2023-02-10T12:27:01;102749.28;;;5.99;40.12
64086;BME280;50333;47.436;21.390;2023-02-10T12:35:01;102751.03;;;5.20;39.53
64086;BME280;50333;47.436;21.390;2023-02-10T12:48:35;102731.66;;;5.55;40.03
64086;BME280;50333;47.436;21.390;2023-02-10T12:51:28;102740.00;;;5.74;39.76
64086;BME280;50333;47.436;21.390;2023-02-10T12:54:13;102744.72;;;5.62;39.70
64086;BME280;50333;47.436;21.390;2023-02-10T12:56:48;102743.84;;;5.78;39.08
64086;BME280;50333;47.436;21.390;2023-02-10T12:59:23;102729.34;;;5.69;39.62
64086;BME280;50333;47.436;21.390;2023-02-10T13:01:56;102726.62;;;5.93;39.22
64086;BME280;50333;47.436;21.390;2023-02-10T13:04:36;102718.47;;;5.42;39.74
64086;BME280;50333;47.436;21.390;2023-02-10T13:13:33;102711.34;;;5.44;40.14
64086;BME280;50333;47.436;21.390;2023-02-10T13:16:15;102715.81;;;5.58;39.87
64086;BME280;50333;47.436;21.390;2023-02-10T13:18:55;102714.87;;;5.51;40.02
64086;BME280;50333;47.436;21.390;2023-02-10T13:21:37;102721.28;;;5.63;39.89
64086;BME280;50333;47.436;21.390;2023-02-10T13:24:17;102723.56;;;5.58;39.85
64086;BME280;50333;47.436;21.390;2023-02-10T13:27:16;102725.94;;;5.28;39.43
64086;BME280;50333;47.436;21.390;2023-02-10T13:34:57;102732.09;;;5.67;39.52
64086;BME280;50333;47.436;21.390;2023-02-10T13:37:40;102729.34;;;5.69;39.59
64086;BME280;50333;47.436;21.390;2023-02-10T13:42:55;102728.56;;;5.91;38.89
64086;BME280;50333;47.436;21.390;2023-02-10T13:45:26;102733.22;;;5.25;39.35
64086;BME280;50333;47.436;21.390;2023-02-10T13:50:52;102732.22;;;5.74;39.45
64086;BME280;50333;47.436;21.390;2023-02-10T14:10:36;102718.31;;;5.75;39.35
64086;BME280;50333;47.436;21.390;2023-02-10T14:13:58;102715.34;;;5.46;39.39
64086;BME280;50333;47.436;21.390;2023-02-10T14:17:23;102731.59;;;5.72;39.27
64086;BME280;50333;47.436;21.390;2023-02-10T14:20:34;102730.56;;;5.50;38.59
64086;BME280;50333;47.436;21.390;2023-02-10T14:23:27;102723.69;;;5.65;38.58
64086;BME280;50333;47.436;21.390;2023-02-10T14:26:05;102728.13;;;5.88;38.75
64086;BME280;50333;47.436;21.390;2023-02-10T14:28:40;102729.69;;;5.57;39.19
64086;BME280;50333;47.436;21.390;2023-02-10T14:31:17;102726.06;;;5.43;38.71
64086;BME280;50333;47.436;21.390;2023-02-10T14:33:58;102720.66;;;5.53;39.13
64086;BME280;50333;47.436;21.390;2023-02-10T14:36:28;102726.56;;;5.78;42.21
64086;BME280;50333;47.436;21.390;2023-02-10T14:39:16;102733.84;;;5.75;38.91
64086;BME280;50333;47.436;21.390;2023-02-10T14:42:05;102732.28;;;5.57;39.04
64086;BME280;50333;47.436;21.390;2023-02-10T14:44:56;102733.59;;;5.53;39.13
64086;BME280;50333;47.436;21.390;2023-02-10T14:47:46;102727.34;;;5.47;39.80
64086;BME280;50333;47.436;21.390;2023-02-10T14:50:29;102731.00;;;5.61;39.69
64086;BME280;50333;47.436;21.390;2023-02-10T14:53:17;102726.06;;;5.43;39.82
64086;BME280;50333;47.436;21.390;2023-02-10T14:55:53;102723.06;;;5.63;39.58
64086;BME280;50333;47.436;21.390;2023-02-10T14:58:21;102719.91;;;5.44;39.73
64086;BME280;50333;47.436;21.390;2023-02-10T15:01:24;102716.09;;;5.63;39.75
64086;BME280;50333;47.436;21.390;2023-02-10T15:04:34;102720.47;;;5.23;40.39
64086;BME280;50333;47.436;21.390;2023-02-10T15:08:03;102714.97;;;5.26;40.35
64086;BME280;50333;47.436;21.390;2023-02-10T15:10:54;102714.53;;;5.54;40.45
64086;BME280;50333;47.436;21.390;2023-02-10T15:14:31;102701.78;;;5.44;40.43
64086;BME280;50333;47.436;21.390;2023-02-10T15:17:43;102702.81;;;5.35;40.88